Torino — 2BZH7 — position and weather

sailwx.info

Track history (hours):
 
Tides and Currents Weather Stations Pressure Air Temp Water Temp Dewpoint Dewpoint Depression Visibility Wind Speed Wind Dir Waves Ship Positions

Torino

Last reported at 2018-Jul-18 23:30 UTC. Time now 2018-Jul-18 23:39 UTC.
Position N 39°15' W 076°35'.

Length 200 m; draft 9.9 m.

Type: Cargo ship. MMSI: 235070707.

Date/timePositionNaut miles runAvg speedWind from/ knotsBaromVisibWave heightAir tempDewpointWater temp
2018-Jul-18 23:30N 39°15' W 076°35'0 0.0
2018-Jul-18 23:00N 39°15' W 076°35'0 0.0
2018-Jul-18 22:30N 39°15' W 076°35'0 0.8
2018-Jul-18 22:00N 39°15' W 076°34'2 3.2
2018-Jul-18 21:28N 39°15' W 076°32'0 0.0
2018-Jul-18 20:58N 39°15' W 076°32'0 0.0
2018-Jul-18 20:28N 39°15' W 076°32'0 0.0
2018-Jul-18 19:58N 39°15' W 076°32'0 0.0
2018-Jul-18 19:28N 39°15' W 076°32'0 0.0
2018-Jul-18 18:58N 39°15' W 076°32'0 0.0
2018-Jul-18 18:28N 39°15' W 076°32'0 0.0
2018-Jul-18 17:58N 39°15' W 076°32'0 0.0
2018-Jul-18 17:28N 39°15' W 076°32'0 0.0
2018-Jul-18 16:58N 39°15' W 076°32'0 0.0
2018-Jul-18 16:28N 39°15' W 076°32'0 0.0
2018-Jul-18 15:58N 39°15' W 076°32'0 0.0
2018-Jul-18 15:28N 39°15' W 076°32'0 0.0
2018-Jul-18 14:58N 39°15' W 076°32'0 0.0
2018-Jul-18 14:28N 39°15' W 076°32'0 0.0
2018-Jul-18 13:28N 39°15' W 076°32'0 0.0
2018-Jul-18 12:58N 39°15' W 076°32'1 2.0
2018-Jul-18 12:30N 39°14' W 076°32'3 6.4
2018-Jul-18 12:00N 39°12' W 076°29'611.7
2018-Jul-18 11:30N 39°08' W 076°24'1515.1
2018-Jul-18 10:30N 38°53' W 076°24'917.2
2018-Jul-18 10:00N 38°44' W 076°26'917.1
2018-Jul-18 09:31N 38°36' W 076°26'816.2
2018-Jul-18 09:00N 38°28' W 076°22'1017.1
2018-Jul-18 08:25N 38°18' W 076°18'717.6
2018-Jul-18 08:00N 38°12' W 076°14'1017.6
2018-Jul-18 07:25N 38°01' W 076°12'717.4
2018-Jul-18 07:00N 37°54' W 076°09'917.4
2018-Jul-18 06:27N 37°45' W 076°11'  
2018-Jul-10 07:48N 49°46' W 004°25'1118.1
2018-Jul-10 07:13N 49°48' W 004°09'817.7
2018-Jul-10 06:47N 49°50' W 003°57'617.3
2018-Jul-10 06:27N 49°51' W 003°48'717.0
2018-Jul-10 06:00N 49°52' W 003°37'816.5
2018-Jul-10 05:30N 49°55' W 003°25'816.2
2018-Jul-10 05:01N 49°57' W 003°13'815.7
2018-Jul-10 04:31N 49°59' W 003°01'815.7
2018-Jul-10 03:59N 50°01' W 002°48'715.6
2018-Jul-10 03:30N 50°03' W 002°37'815.7
2018-Jul-10 02:59N 50°06' W 002°25'816.0
2018-Jul-10 02:27N 50°09' W 002°13'1116.6
2018-Jul-10 01:47N 50°14' W 001°57'517.1
2018-Jul-10 01:30N 50°16' W 001°51'917.6
2018-Jul-10 01:01N 50°20' W 001°39'918.1
2018-Jul-10 00:30N 50°25' W 001°27'918.5
2018-Jul-10 00:01N 50°29' W 001°14'918.9
2018-Jul-09 23:30N 50°34' W 001°01'611.7
2018-Jul-09 23:00N 50°39' W 000°56'611.3
2018-Jul-09 22:31N 50°43' W 001°01'815.5
2018-Jul-09 22:01N 50°46' W 001°13'4 8.8
2018-Jul-09 21:30N 50°49' W 001°18'510.3
2018-Jul-09 21:00N 50°53' W 001°23'1 1.9
2018-Jul-09 20:28N 50°53' W 001°24'0 0.0
2018-Jul-09 19:58N 50°53' W 001°24'0 0.0
2018-Jul-09 19:28N 50°53' W 001°24'0 0.0
2018-Jul-09 18:58N 50°53' W 001°24'0 0.0
2018-Jul-09 18:28N 50°53' W 001°24'0 0.0
2018-Jul-09 17:58N 50°53' W 001°24'0 0.0
2018-Jul-09 17:28N 50°53' W 001°24'0 0.0
2018-Jul-09 16:58N 50°53' W 001°24'0 0.0
2018-Jul-09 16:28N 50°53' W 001°24'0 0.0
2018-Jul-09 15:58N 50°53' W 001°24'0 0.0
2018-Jul-09 15:28N 50°53' W 001°24'0 0.0
2018-Jul-09 14:58N 50°53' W 001°24'0 0.0
2018-Jul-09 14:28N 50°53' W 001°24'0 0.0
2018-Jul-09 13:58N 50°53' W 001°24'0 0.0
2018-Jul-09 13:28N 50°53' W 001°24'0 0.0
2018-Jul-09 12:58N 50°53' W 001°24'0 0.0
2018-Jul-09 12:28N 50°53' W 001°24'0 0.0
2018-Jul-09 11:58N 50°53' W 001°24'0 0.0
2018-Jul-09 11:28N 50°53' W 001°24'0 0.0
2018-Jul-09 10:58N 50°53' W 001°24'0 0.0
2018-Jul-09 10:28N 50°53' W 001°24'0 0.0
2018-Jul-09 09:58N 50°53' W 001°24'0 0.0
2018-Jul-09 09:28N 50°53' W 001°24'0 0.0
2018-Jul-09 08:58N 50°53' W 001°24'0 0.0
2018-Jul-09 08:28N 50°53' W 001°24'0 0.0
2018-Jul-09 07:58N 50°53' W 001°24'0 0.0
2018-Jul-09 07:28N 50°53' W 001°24'0 0.0
2018-Jul-09 06:58N 50°53' W 001°24'0 0.0
2018-Jul-09 06:28N 50°53' W 001°24'0 0.0
2018-Jul-09 05:58N 50°53' W 001°24'0 0.0
2018-Jul-09 05:28N 50°53' W 001°24'0 0.0
2018-Jul-09 04:58N 50°53' W 001°24'0 0.0
2018-Jul-09 04:28N 50°53' W 001°24'0 0.2
2018-Jul-09 04:00N 50°53' W 001°24'3 5.9
2018-Jul-09 03:30N 50°51' W 001°21'4 7.8
2018-Jul-09 03:00N 50°48' W 001°18'713.0
2018-Jul-09 02:30N 50°45' W 001°09'815.9
2018-Jul-09 02:00N 50°42' W 000°58'4 8.5
2018-Jul-09 01:30N 50°37' W 000°58'3 6.2
2018-Jul-09 00:59N 50°37' W 001°03'0 0.1
2018-Jul-09 00:29N 50°37' W 001°03'0 0.0
2018-Jul-08 23:59N 50°37' W 001°03'  
Track history (hours):
 
Tides and Currents Weather Stations Pressure Air Temp Water Temp Dewpoint Dewpoint Depression Visibility Wind Speed Wind Dir Waves Ship Positions

Torino

Last reported at 2018-Jul-18 23:30 UTC. Time now 2018-Jul-18 23:39 UTC.
Position N 39°15' W 076°35'.

Length 200 m; draft 9.9 m.

Type: Cargo ship. MMSI: 235070707.

Date/timePositionNaut miles runAvg speedWind from/ knotsBaromVisibWave heightAir tempDewpointWater temp
2018-Jul-18 23:30N 39°15' W 076°35'0 0.0
2018-Jul-18 23:00N 39°15' W 076°35'0 0.0
2018-Jul-18 22:30N 39°15' W 076°35'0 0.8
2018-Jul-18 22:00N 39°15' W 076°34'2 3.2
2018-Jul-18 21:28N 39°15' W 076°32'0 0.0
2018-Jul-18 20:58N 39°15' W 076°32'0 0.0
2018-Jul-18 20:28N 39°15' W 076°32'0 0.0
2018-Jul-18 19:58N 39°15' W 076°32'0 0.0
2018-Jul-18 19:28N 39°15' W 076°32'0 0.0
2018-Jul-18 18:58N 39°15' W 076°32'0 0.0
2018-Jul-18 18:28N 39°15' W 076°32'0 0.0
2018-Jul-18 17:58N 39°15' W 076°32'0 0.0
2018-Jul-18 17:28N 39°15' W 076°32'0 0.0
2018-Jul-18 16:58N 39°15' W 076°32'0 0.0
2018-Jul-18 16:28N 39°15' W 076°32'0 0.0
2018-Jul-18 15:58N 39°15' W 076°32'0 0.0
2018-Jul-18 15:28N 39°15' W 076°32'0 0.0
2018-Jul-18 14:58N 39°15' W 076°32'0 0.0
2018-Jul-18 14:28N 39°15' W 076°32'0 0.0
2018-Jul-18 13:28N 39°15' W 076°32'0 0.0
2018-Jul-18 12:58N 39°15' W 076°32'1 2.0
2018-Jul-18 12:30N 39°14' W 076°32'3 6.4
2018-Jul-18 12:00N 39°12' W 076°29'611.7
2018-Jul-18 11:30N 39°08' W 076°24'1515.1
2018-Jul-18 10:30N 38°53' W 076°24'917.2
2018-Jul-18 10:00N 38°44' W 076°26'917.1
2018-Jul-18 09:31N 38°36' W 076°26'816.2
2018-Jul-18 09:00N 38°28' W 076°22'1017.1
2018-Jul-18 08:25N 38°18' W 076°18'717.6
2018-Jul-18 08:00N 38°12' W 076°14'1017.6
2018-Jul-18 07:25N 38°01' W 076°12'717.4
2018-Jul-18 07:00N 37°54' W 076°09'917.4
2018-Jul-18 06:27N 37°45' W 076°11'  
2018-Jul-10 07:48N 49°46' W 004°25'1118.1
2018-Jul-10 07:13N 49°48' W 004°09'817.7
2018-Jul-10 06:47N 49°50' W 003°57'617.3
2018-Jul-10 06:27N 49°51' W 003°48'717.0
2018-Jul-10 06:00N 49°52' W 003°37'816.5
2018-Jul-10 05:30N 49°55' W 003°25'816.2
2018-Jul-10 05:01N 49°57' W 003°13'815.7
2018-Jul-10 04:31N 49°59' W 003°01'815.7
2018-Jul-10 03:59N 50°01' W 002°48'715.6
2018-Jul-10 03:30N 50°03' W 002°37'815.7
2018-Jul-10 02:59N 50°06' W 002°25'816.0
2018-Jul-10 02:27N 50°09' W 002°13'1116.6
2018-Jul-10 01:47N 50°14' W 001°57'517.1
2018-Jul-10 01:30N 50°16' W 001°51'917.6
2018-Jul-10 01:01N 50°20' W 001°39'918.1
2018-Jul-10 00:30N 50°25' W 001°27'918.5
2018-Jul-10 00:01N 50°29' W 001°14'918.9
2018-Jul-09 23:30N 50°34' W 001°01'611.7
2018-Jul-09 23:00N 50°39' W 000°56'611.3
2018-Jul-09 22:31N 50°43' W 001°01'815.5
2018-Jul-09 22:01N 50°46' W 001°13'4 8.8
2018-Jul-09 21:30N 50°49' W 001°18'510.3
2018-Jul-09 21:00N 50°53' W 001°23'1 1.9
2018-Jul-09 20:28N 50°53' W 001°24'0 0.0
2018-Jul-09 19:58N 50°53' W 001°24'0 0.0
2018-Jul-09 19:28N 50°53' W 001°24'0 0.0
2018-Jul-09 18:58N 50°53' W 001°24'0 0.0
2018-Jul-09 18:28N 50°53' W 001°24'0 0.0
2018-Jul-09 17:58N 50°53' W 001°24'0 0.0
2018-Jul-09 17:28N 50°53' W 001°24'0 0.0
2018-Jul-09 16:58N 50°53' W 001°24'0 0.0
2018-Jul-09 16:28N 50°53' W 001°24'0 0.0
2018-Jul-09 15:58N 50°53' W 001°24'0 0.0
2018-Jul-09 15:28N 50°53' W 001°24'0 0.0
2018-Jul-09 14:58N 50°53' W 001°24'0 0.0
2018-Jul-09 14:28N 50°53' W 001°24'0 0.0
2018-Jul-09 13:58N 50°53' W 001°24'0 0.0
2018-Jul-09 13:28N 50°53' W 001°24'0 0.0
2018-Jul-09 12:58N 50°53' W 001°24'0 0.0
2018-Jul-09 12:28N 50°53' W 001°24'0 0.0
2018-Jul-09 11:58N 50°53' W 001°24'0 0.0
2018-Jul-09 11:28N 50°53' W 001°24'0 0.0
2018-Jul-09 10:58N 50°53' W 001°24'0 0.0
2018-Jul-09 10:28N 50°53' W 001°24'0 0.0
2018-Jul-09 09:58N 50°53' W 001°24'0 0.0
2018-Jul-09 09:28N 50°53' W 001°24'0 0.0
2018-Jul-09 08:58N 50°53' W 001°24'0 0.0
2018-Jul-09 08:28N 50°53' W 001°24'0 0.0
2018-Jul-09 07:58N 50°53' W 001°24'0 0.0
2018-Jul-09 07:28N 50°53' W 001°24'0 0.0
2018-Jul-09 06:58N 50°53' W 001°24'0 0.0
2018-Jul-09 06:28N 50°53' W 001°24'0 0.0
2018-Jul-09 05:58N 50°53' W 001°24'0 0.0
2018-Jul-09 05:28N 50°53' W 001°24'0 0.0
2018-Jul-09 04:58N 50°53' W 001°24'0 0.0
2018-Jul-09 04:28N 50°53' W 001°24'0 0.2
2018-Jul-09 04:00N 50°53' W 001°24'3 5.9
2018-Jul-09 03:30N 50°51' W 001°21'4 7.8
2018-Jul-09 03:00N 50°48' W 001°18'713.0
2018-Jul-09 02:30N 50°45' W 001°09'815.9
2018-Jul-09 02:00N 50°42' W 000°58'4 8.5
2018-Jul-09 01:30N 50°37' W 000°58'3 6.2
2018-Jul-09 00:59N 50°37' W 001°03'0 0.1
2018-Jul-09 00:29N 50°37' W 001°03'0 0.0
2018-Jul-08 23:59N 50°37' W 001°03'  

Dump ship's entire track history